»·PEaware :: SWA425 KBUR-KLAS

SWA425 :: KBUR-KLAS

FLIGHT INFORMATION

Flight Status: Arrived
Operator:
Southwest Airlines
More flights by this operator :: More flights under this callsign
Pilot: Michael D. (17574)
Aircraft: BOEING 737-800
(B738)
More flights by this aircraft type
Origin: KBUR Bob Hope-Burbank
United States
Destination: KLAS McCarran Intl
United States
More flights between these airports :: More routes between these airports
Route: +VNY3 DAG MISEN KEPEC6
File this flight plan on PilotEdge
Remarks:
Altitude:
(Current/Filed)
27,000ft
Speed:
(Current/Filed)
470kts
Departed: 09-Jan-18 11:28 PM
Arrived: 10-Jan-18 12:25 AM
Distance/Time
Traveled:
194nm/0:57
Distance/Time
To Go:
Arrived

Flight Plot

Page will automatically refresh every two minutes.

Flight plan parsing failed; only flown route is shown


Map Options




Map Legend


Flown Route
Filed Route
Departure Airport
Arrival Airport
Navaid (VOR, NDB)
Fix

Horizontal Profiles

Position Reports

Time Latitude Longitude Heading Altitude Ground
Speed
09-Jan-18 23:15 34.196781 -118.352374 179 741ft 0kts
09-Jan-18 23:16 34.196781 -118.352374 179 741ft 0kts
09-Jan-18 23:17 34.196781 -118.352374 179 741ft 0kts
09-Jan-18 23:18 34.196781 -118.352374 179 741ft 0kts
09-Jan-18 23:19 34.196781 -118.352374 179 741ft 0kts
09-Jan-18 23:20 34.196781 -118.352374 179 741ft 0kts
09-Jan-18 23:21 34.196781 -118.352374 179 741ft 0kts
09-Jan-18 23:22 34.196781 -118.352374 179 741ft 0kts
09-Jan-18 23:23 34.196781 -118.352374 179 741ft 0kts
09-Jan-18 23:24 34.196781 -118.352374 179 742ft 0kts
09-Jan-18 23:25 34.197194 -118.352091 267 742ft 0kts
09-Jan-18 23:26 34.197189 -118.351998 271 742ft 0kts
09-Jan-18 23:27 34.197189 -118.351998 271 742ft 0kts
09-Jan-18 23:28 34.197189 -118.351998 271 742ft 0kts
09-Jan-18 23:29 34.198541 -118.355294 346 742ft 23kts
09-Jan-18 23:30 34.205830 -118.357332 347 742ft 29kts
09-Jan-18 23:31 34.211614 -118.359025 321 742ft 0kts
09-Jan-18 23:32 34.211614 -118.359025 321 742ft 0kts
09-Jan-18 23:33 34.211829 -118.360265 181 741ft 6kts
09-Jan-18 23:34 34.178348 -118.351532 172 2157ft 177kts
09-Jan-18 23:35 34.134548 -118.387053 225 3321ft 255kts
09-Jan-18 23:36 34.097521 -118.460696 252 6179ft 270kts
09-Jan-18 23:37 34.105341 -118.540989 319 9134ft 262kts
09-Jan-18 23:38 34.175349 -118.530378 24 11291ft 306kts
09-Jan-18 23:39 34.249845 -118.479208 24 12977ft 312kts
09-Jan-18 23:40 34.325374 -118.427221 23 14015ft 315kts
09-Jan-18 23:41 34.401677 -118.374587 22 16792ft 322kts
09-Jan-18 23:42 34.477259 -118.314531 35 19350ft 341kts
09-Jan-18 23:43 34.535224 -118.219350 44 21676ft 360kts
09-Jan-18 23:44 34.595416 -118.121638 42 23907ft 366kts
09-Jan-18 23:45 34.639031 -118.005869 72 25844ft 415kts
09-Jan-18 23:46 34.653213 -117.865758 71 26922ft 433kts
09-Jan-18 23:47 34.675287 -117.717976 62 26929ft 452kts
09-Jan-18 23:48 34.713262 -117.567946 63 26925ft 472kts
09-Jan-18 23:49 34.750978 -117.416160 62 26920ft 470kts
09-Jan-18 23:50 34.787469 -117.270086 63 26914ft 470kts
09-Jan-18 23:51 34.825697 -117.117643 63 26900ft 470kts
09-Jan-18 23:52 34.862020 -116.973700 65 26889ft 478kts
09-Jan-18 23:53 34.901001 -116.819580 67 26884ft 477kts
09-Jan-18 23:54 34.940226 -116.665362 67 26890ft 477kts
09-Jan-18 23:55 34.996682 -116.533859 38 26589ft 401kts
09-Jan-18 23:56 35.072176 -116.441275 39 24657ft 386kts
09-Jan-18 23:57 35.140254 -116.356303 39 23887ft 379kts
09-Jan-18 23:58 35.209075 -116.269319 40 22926ft 384kts
09-Jan-18 23:59 35.280798 -116.178424 41 20436ft 367kts
10-Jan-18 00:00 35.350861 -116.089784 41 19097ft 363kts
10-Jan-18 00:01 35.420222 -116.002101 41 17763ft 356kts
10-Jan-18 00:02 35.488764 -115.915504 41 16582ft 352kts
10-Jan-18 00:03 35.555917 -115.830747 42 15297ft 345kts
10-Jan-18 00:04 35.621612 -115.747873 42 14026ft 323kts
10-Jan-18 00:05 35.681663 -115.672194 42 13024ft 307kts
10-Jan-18 00:06 35.740991 -115.596477 39 13017ft 309kts
10-Jan-18 00:07 35.820069 -115.572764 359 13019ft 297kts
10-Jan-18 00:08 35.902503 -115.567491 359 11917ft 288kts
10-Jan-18 00:09 35.976363 -115.535242 51 11539ft 306kts
10-Jan-18 00:10 36.009530 -115.442307 66 11188ft 281kts
10-Jan-18 00:11 36.029563 -115.350396 93 11025ft 284kts
10-Jan-18 00:12 36.022829 -115.260155 95 9732ft 298kts
10-Jan-18 00:13 36.016031 -115.165000 96 8681ft 267kts
10-Jan-18 00:14 36.009837 -115.074937 92 8055ft 249kts
10-Jan-18 00:15 36.004976 -114.992429 92 8111ft 244kts
10-Jan-18 00:16 35.999952 -114.908639 92 8135ft 245kts
10-Jan-18 00:17 35.994931 -114.824577 93 8136ft 245kts
10-Jan-18 00:18 35.989369 -114.741029 93 8136ft 244kts
10-Jan-18 00:19 35.983936 -114.659397 93 8137ft 238kts
10-Jan-18 00:20 36.016271 -114.609564 10 8104ft 177kts
10-Jan-18 00:21 36.060228 -114.624745 282 8144ft 179kts
10-Jan-18 00:22 36.068526 -114.684902 275 8138ft 177kts
10-Jan-18 00:23 36.073056 -114.742464 267 7432ft 173kts
10-Jan-18 00:24 36.073400 -114.797772 266 6758ft 153kts
10-Jan-18 00:25 36.073493 -114.851268 266 6476ft 163kts
10-Jan-18 00:26 36.073539 -114.905590 267 5526ft 158kts
10-Jan-18 00:27 36.073672 -114.959795 267 4698ft 155kts
10-Jan-18 00:28 36.073738 -115.010899 269 3854ft 140kts
10-Jan-18 00:29 36.073800 -115.059832 266 3620ft 146kts
10-Jan-18 00:30 36.073684 -115.108419 267 2350ft 137kts
10-Jan-18 00:31 36.073624 -115.140509 269 2086ft 19kts
10-Jan-18 00:32 36.075664 -115.146535 351 2104ft 12kts
10-Jan-18 00:33 36.077751 -115.144677 68 2094ft 3kts
10-Jan-18 00:34 36.081248 -115.145649 278 2090ft 6kts
10-Jan-18 00:35 36.081262 -115.146040 272 2090ft 0kts
10-Jan-18 00:36 36.081262 -115.146040 272 2090ft 0kts
10-Jan-18 00:37 36.081262 -115.146040 272 2090ft 0kts
10-Jan-18 00:38 36.081262 -115.146040 272 2090ft 0kts
10-Jan-18 00:39 36.081262 -115.146040 272 2090ft 0kts
10-Jan-18 00:40 36.073761 -115.016400 269 3852ft 139kts
10-Jan-18 00:41 36.073694 -115.064341 268 3503ft 146kts
10-Jan-18 00:42 36.073568 -115.112861 267 2294ft 136kts
10-Jan-18 00:43 36.073657 -115.128039 268 2051ft 129kts
10-Jan-18 00:44 36.073815 -115.143321 283 2094ft 25kts

Navigation Log

Ident Type
Flight plan parsing failed, navigation log unavailable